Flying H, New Mexico
Current Conditions -  °F | °C
As of 11:58 AM on Tuesday 21 Oct 2014 (Local Time) from KHMN Reporting Station
Clear Clear  
Wind Chill: 65°   Ceiling: Unl
Heat Index: 65°   Visibility: 10mi
Dew Point: 54°   Wind: 0mph
Humidity: 68%   Direction: NA
Pressure: 30.1"   Gusts: NA
Location:  32.9146°N, 105.46°W
Report Text: KHMN 211758Z AUTO 00000KT 10SM CLR 18/12 A3010 RMK AO2 SLP146 T01820123 10186 20114 58004 $
Loading
Personal Weather Stations






























Interactive Weather Map
Tropical Storm Tracking
New forecast layout! Learn more

10-Day Weather Forecast

Advertisements
Track Severe Weather on mobile